Waukee, Iowa
Current Conditions -  °F | °C
As of 4:54 PM on Wednesday 26 Nov 2014 (Local Time) from KDSM Reporting Station
Light Snow Light Snow  
Wind Chill: -6°   Ceiling: 800
Heat Index:   Visibility: 6mi
Dew Point: -3°   Wind: 14mph
Humidity: 82%   Direction: 10°N
Pressure: 30.16"   Gusts: NA
Location:  41.61°N, 93.89°W
Report Text: KDSM 262254Z 01012KT 6SM -SN OVC008 00/M03 A3016 RMK AO2 SLP223 P0000 T00001028
Loading
Personal Weather Stations






























Interactive Weather Map New forecast layout! Learn more

10-Day Weather Forecast

Advertisements
Track Severe Weather on mobile